Welches, OR (97067)

2:57 AM PST on January 30, 2015 (GMT -0800)
Sandy River, Elev. 1411 | Change Station
CLOSE
Current Station
Personal Weather Station
Location: Rhododendron, OR
Elevation: 1411 ft
Nearby Weather Stations

Elev 1411 ft 45.35 °N, 121.95 °W | Updated 10 minutes ago

Mostly Cloudy
Mostly Cloudy
38.2 °F
Feels Like 38 °F
N
1.0
Wind Variable Wind from NE
Gusts 8.0 mph

Today
High -- | Low -- °F
--% Chance of Precip.
Yesterday
High -- | Low -- °F
Precip. -- in
7:30 AM 5:11 PM
Waxing Gibbous, 82% visible
Pressure 30.27 in
Visibility 10.0 miles
Clouds Clear
Windchill 38 °F
Dew Point 33 °F
Humidity 81%
Rainfall 0.00 in
Snow Depth Not available.
UV 0 out of 12
Pollen 3.00 out of 12
Air Quality Not available.
Flu Activity Not available.
METAR KTTD 300953Z AUTO 08018G26KT 10SM CLR 06/01 A3027 RMK AO2 PK WND 08026/0944 SLP251 T00610006

More Conditions Fewer Conditions

Pressure 30.27 in
Visibility 10.0 miles
Clouds Clear
Windchill 38 °F
Dew Point 33 °F
Humidity 81%
Rainfall 0.00 in
Snow Depth Not available.
UV 0 out of 12
Pollen 3.00 out of 12
Air Quality Not available.
Flu Activity Not available.
METAR KTTD 300953Z AUTO 08018G26KT 10SM CLR 06/01 A3027 RMK AO2 PK WND 08026/0944 SLP251 T00610006

More Conditions Fewer Conditions

10-Day Weather Forecast

Almanac

Astronomy

Jan. 30, 2015 Rise Set
Actual Time
Civil Twilight
Nautical Twilight
Astronomical Twilight
Moon
Length of Visible Light
Length of Day
Tomorrow will be .
, % of the Moon is Illuminated

Today's Extremes

State Highs State Lows

Community

WunderPhotos

Upload Photos

1,791,736 photos uploaded!

WunderBlogs® & News

Nearby

Air Quality

  Air Quality AQ Index Pollutant
Not available.

Snow Depth

Station Depth Elevation

Earthquake Activity

City Distance Mag. Time & Date
Minimum magnitude displayed is 2.5.

Coastal Water Temperatures

Place Temperature

Nearby Weather Stations